Time;durP1;ratioP1;P1;durP2;ratioP2;P2;SDS_P1;SDS_P2;PMS_P1;PMS_P2;Temp;Humidity;BMP_temperature;BMP_pressure;BME280_temperature;BME280_humidity;BME280_pressure;Samples;Min_cycle;Max_cycle;Signal;HPM_P1;HPM_P2
2022/10/03 00:01:45;;;;;;;;;;;;;;;27.97;30.74;100571.91;5059761;28;1154;-43
2022/10/03 00:04:11;;;;;;;;;;;;;;;27.90;30.60;100567.44;5076377;28;1146;-43
2022/10/03 00:06:46;;;;;;;;;;;;;;;27.84;30.80;100563.66;5077196;28;1237;-43
2022/10/03 00:09:32;;;;;;;;;;;;;;;27.78;31.04;100556.31;5076548;28;1158;-43
2022/10/03 00:12:08;;;;;;;;;;;;;;;27.86;30.91;100557.00;5045445;28;1242;-43
2022/10/03 00:15:02;;;;;;;;;;;;;;;27.87;31.24;100558.72;5044964;28;1899;-43
2022/10/03 00:17:48;;;;;;;;;;;;;;;27.94;30.91;100555.22;5059448;28;1154;-44
2022/10/03 00:20:13;;;;;;;;;;;;;;;27.93;30.59;100556.22;5061898;28;1196;-44
2022/10/03 00:22:52;;;;;;;;;;;;;;;27.96;30.82;100555.88;5076609;28;1214;-43
2022/10/03 00:25:23;;;;;;;;;;;;;;;28.01;30.86;100555.28;5076143;28;1106;-43
2022/10/03 00:27:51;;;;;;;;;;;;;;;27.97;30.63;100550.28;5076808;28;1166;-44
2022/10/03 00:30:18;;;;;;;;;;;;;;;28.04;30.64;100547.63;5076525;28;1130;-43
2022/10/03 00:33:02;;;;;;;;;;;;;;;28.02;30.86;100540.72;5053962;28;1245;-43
2022/10/03 00:35:48;;;;;;;;;;;;;;;27.93;30.71;100540.00;5076150;28;1910;-42
2022/10/03 00:38:13;;;;;;;;;;;;;;;27.87;30.58;100536.22;5076496;28;1190;-43
2022/10/03 00:40:55;;;;;;;;;;;;;;;27.89;30.60;100525.22;5076260;28;1123;-43
2022/10/03 00:43:26;;;;;;;;;;;;;;;27.94;30.72;100530.91;5076477;28;1194;-44
2022/10/03 00:46:04;;;;;;;;;;;;;;;27.89;30.69;100527.94;5073055;28;914;-43
2022/10/03 00:48:34;;;;;;;;;;;;;;;27.93;30.83;100531.91;5076427;28;1264;-43
2022/10/03 00:51:00;;;;;;;;;;;;;;;27.91;30.90;100529.41;5058482;28;1120;-43
2022/10/03 00:53:40;;;;;;;;;;;;;;;27.91;30.74;100539.41;5076480;28;1177;-43
2022/10/03 00:56:15;;;;;;;;;;;;;;;27.97;30.52;100525.94;5075870;28;1983;-44
2022/10/03 00:59:01;;;;;;;;;;;;;;;27.91;30.57;100532.09;5075590;28;1135;-44
2022/10/03 01:01:26;;;;;;;;;;;;;;;27.93;30.86;100527.34;5075974;28;1138;-43
2022/10/03 01:04:06;;;;;;;;;;;;;;;27.97;30.76;100528.66;5076171;28;1289;-43
2022/10/03 01:06:35;;;;;;;;;;;;;;;27.94;30.87;100522.78;5075402;28;1171;-43
2022/10/03 01:09:05;;;;;;;;;;;;;;;27.97;30.47;100522.38;5050348;28;1120;-44
2022/10/03 01:11:45;;;;;;;;;;;;;;;27.92;30.88;100530.25;5076002;28;1253;-43
2022/10/03 01:14:36;;;;;;;;;;;;;;;27.92;30.93;100522.97;5075833;28;1972;-44
2022/10/03 01:17:20;;;;;;;;;;;;;;;27.84;30.95;100531.22;5078850;28;1234;-43
2022/10/03 01:19:51;;;;;;;;;;;;;;;27.76;31.34;100526.75;5066920;28;1179;-43
2022/10/03 01:22:35;;;;;;;;;;;;;;;27.81;31.20;100523.50;5079688;28;1007;-43
2022/10/03 01:25:22;;;;;;;;;;;;;;;27.81;31.03;100527.03;5080327;28;1111;-43
2022/10/03 01:30:41;;;;;;;;;;;;;;;27.78;31.18;100515.78;5064685;28;1355;-43
2022/10/03 01:33:10;;;;;;;;;;;;;;;27.84;30.92;100518.53;5079293;28;1134;-43
2022/10/03 01:35:35;;;;;;;;;;;;;;;27.82;30.83;100520.59;5061929;28;1914;-43
2022/10/03 01:38:08;;;;;;;;;;;;;;;27.82;31.05;100514.34;5079250;28;1233;-43
2022/10/03 01:40:35;;;;;;;;;;;;;;;27.76;31.15;100510.53;5062280;28;1170;-44
2022/10/03 01:43:31;;;;;;;;;;;;;;;27.78;31.28;100510.38;5079771;28;1162;-43
2022/10/03 01:46:15;;;;;;;;;;;;;;;27.72;31.51;100507.41;5050709;28;1194;-44
2022/10/03 01:49:01;;;;;;;;;;;;;;;27.75;31.09;100500.78;5066421;28;1119;-43
2022/10/03 01:51:35;;;;;;;;;;;;;;;27.79;30.94;100509.34;5078664;28;1410;-44
2022/10/03 01:54:19;;;;;;;;;;;;;;;27.86;30.94;100496.72;5079375;28;1893;-43
2022/10/03 01:56:51;;;;;;;;;;;;;;;27.70;31.49;100495.97;5078269;28;1162;-43
2022/10/03 01:59:18;;;;;;;;;;;;;;;27.66;31.56;100491.91;5051207;28;1152;-44
2022/10/03 02:01:47;;;;;;;;;;;;;;;27.66;31.53;100489.22;5079843;28;1178;-44
2022/10/03 02:04:21;;;;;;;;;;;;;;;27.63;31.25;100486.91;5079448;28;1150;-43
2022/10/03 02:06:49;;;;;;;;;;;;;;;27.63;31.43;100484.19;5079111;28;1118;-43
2022/10/03 02:09:15;;;;;;;;;;;;;;;27.65;31.55;100476.75;5078634;28;1151;-43
2022/10/03 02:11:43;;;;;;;;;;;;;;;27.70;31.20;100473.50;5078945;28;1159;-43
2022/10/03 02:14:28;;;;;;;;;;;;;;;27.68;31.49;100479.09;5079062;28;1952;-43
2022/10/03 02:16:53;;;;;;;;;;;;;;;27.68;31.12;100486.31;5061076;28;1155;-43
2022/10/03 02:19:28;;;;;;;;;;;;;;;27.69;31.15;100488.03;5078768;28;1131;-43
2022/10/03 02:21:54;;;;;;;;;;;;;;;27.63;31.54;100493.16;5069862;28;1186;-44
2022/10/03 02:24:25;;;;;;;;;;;;;;;27.66;31.09;100499.22;5058153;28;1195;-43
2022/10/03 02:26:57;;;;;;;;;;;;;;;27.65;31.42;100506.47;5060328;28;1151;-43
2022/10/03 02:29:28;;;;;;;;;;;;;;;27.62;31.69;100506.84;5078557;28;1138;-43
2022/10/03 02:32:04;;;;;;;;;;;;;;;27.59;31.40;100497.25;5078762;28;1027;-43
2022/10/03 02:34:47;;;;;;;;;;;;;;;27.61;31.83;100492.50;5067020;28;1902;-43
2022/10/03 02:37:13;;;;;;;;;;;;;;;27.60;31.65;100490.84;5079001;28;1146;-43
2022/10/03 02:39:50;;;;;;;;;;;;;;;27.58;31.57;100498.28;5078239;28;1165;-43
2022/10/03 02:42:24;;;;;;;;;;;;;;;27.62;31.69;100504.16;5078696;28;1225;-43
2022/10/03 02:45:00;;;;;;;;;;;;;;;27.61;31.78;100506.00;5078579;28;1146;-43
2022/10/03 02:47:44;;;;;;;;;;;;;;;27.64;31.66;100512.91;5051567;28;1171;-44
2022/10/03 02:50:18;;;;;;;;;;;;;;;27.59;31.80;100523.47;5077958;28;1201;-44
2022/10/03 02:52:52;;;;;;;;;;;;;;;27.58;31.63;100532.56;5060464;28;1468;-44
2022/10/03 02:55:20;;;;;;;;;;;;;;;27.55;31.63;100525.69;5078444;28;1902;-44
2022/10/03 02:57:45;;;;;;;;;;;;;;;27.56;32.02;100532.78;5072598;28;1193;-43
2022/10/03 03:00:29;;;;;;;;;;;;;;;27.63;31.56;100530.13;5075963;28;1171;-43
2022/10/03 03:03:00;;;;;;;;;;;;;;;27.59;31.52;100528.88;5078074;28;1158;-43
2022/10/03 03:05:40;;;;;;;;;;;;;;;27.58;31.47;100530.72;5077744;28;1232;-43
2022/10/03 03:08:05;;;;;;;;;;;;;;;27.57;31.77;100533.63;5078778;28;1213;-43
2022/10/03 03:10:49;;;;;;;;;;;;;;;27.58;31.71;100530.72;5067429;28;1107;-43
2022/10/03 03:13:24;;;;;;;;;;;;;;;27.58;31.70;100530.72;5078228;28;1154;-43
2022/10/03 03:15:53;;;;;;;;;;;;;;;27.53;31.68;100522.34;5060538;28;1961;-43
2022/10/03 03:18:35;;;;;;;;;;;;;;;27.17;28.52;100517.78;5077524;28;1237;-44
2022/10/03 03:21:12;;;;;;;;;;;;;;;26.82;28.41;100508.41;5059561;28;1274;-43
2022/10/03 03:23:56;;;;;;;;;;;;;;;26.56;28.61;100508.88;5056413;28;980;-43
2022/10/03 03:26:40;;;;;;;;;;;;;;;26.06;28.66;100503.94;5077792;28;1225;-43
2022/10/03 03:29:05;;;;;;;;;;;;;;;25.97;28.72;100509.38;5077530;28;1150;-43
2022/10/03 03:31:31;;;;;;;;;;;;;;;25.80;28.83;100498.75;5077322;28;1193;-43
2022/10/03 03:34:11;;;;;;;;;;;;;;;25.78;28.66;100495.38;5075202;28;1906;-43
2022/10/03 03:36:36;;;;;;;;;;;;;;;25.74;28.19;100495.91;5049039;28;1171;-43
2022/10/03 03:39:04;;;;;;;;;;;;;;;25.73;28.03;100497.75;5073426;28;1155;-43
2022/10/03 03:41:42;;;;;;;;;;;;;;;25.69;28.40;100499.16;5059247;28;1182;-43
2022/10/03 03:44:07;;;;;;;;;;;;;;;25.65;28.42;100484.34;5077297;28;1245;-43
2022/10/03 03:46:51;;;;;;;;;;;;;;;25.50;29.70;100492.34;5076768;28;1163;-43
2022/10/03 03:49:35;;;;;;;;;;;;;;;24.83;29.42;100492.63;5077400;28;1202;-43
2022/10/03 03:52:03;;;;;;;;;;;;;;;24.36;29.98;100488.91;5064504;28;1187;-43
2022/10/03 03:54:35;;;;;;;;;;;;;;;24.20;30.54;100482.53;5075799;28;1890;-43
2022/10/03 03:57:03;;;;;;;;;;;;;;;24.25;29.51;100474.81;5077088;28;1169;-43
2022/10/03 03:59:40;;;;;;;;;;;;;;;24.82;28.88;100475.66;5074631;28;1111;-42
2022/10/03 04:02:28;;;;;;;;;;;;;;;25.03;28.97;100474.25;5059229;28;1222;-43
2022/10/03 04:05:08;;;;;;;;;;;;;;;25.22;29.68;100474.84;5039397;28;1236;-43
2022/10/03 04:07:49;;;;;;;;;;;;;;;25.64;29.21;100477.31;5043301;28;1171;-40
2022/10/03 04:10:17;;;;;;;;;;;;;;;25.78;29.40;100473.81;5069002;28;1177;-39
2022/10/03 04:12:46;;;;;;;;;;;;;;;25.74;29.04;100463.59;5076645;28;1127;-41
2022/10/03 04:15:26;;;;;;;;;;;;;;;25.73;29.04;100462.75;5075570;28;2500;-42
2022/10/03 04:20:55;;;;;;;;;;;;;;;25.71;29.22;100467.47;5067390;28;2072;-42
2022/10/03 04:23:26;;;;;;;;;;;;;;;25.66;29.62;100465.31;5059946;28;1848;-42
2022/10/03 04:26:09;;;;;;;;;;;;;;;25.65;29.38;100474.44;5067915;28;2216;-43
2022/10/03 04:28:56;;;;;;;;;;;;;;;25.64;29.39;100472.72;5068482;28;2254;-41
2022/10/03 04:31:24;;;;;;;;;;;;;;;25.70;29.45;100478.44;5068893;28;1917;-41
2022/10/03 04:33:57;;;;;;;;;;;;;;;25.68;29.64;100476.75;5065857;28;1107;-43
2022/10/03 04:36:32;;;;;;;;;;;;;;;25.72;29.48;100479.09;5058500;28;1179;-42
2022/10/03 04:39:23;;;;;;;;;;;;;;;25.69;29.91;100474.91;5065311;28;1068;-42
2022/10/03 04:42:02;;;;;;;;;;;;;;;25.73;29.39;100478.06;5040128;28;1231;-41
2022/10/03 04:44:46;;;;;;;;;;;;;;;25.77;29.43;100482.09;5037702;28;1116;-41
2022/10/03 04:47:24;;;;;;;;;;;;;;;25.80;28.97;100465.56;5066152;28;892;-39
2022/10/03 04:49:55;;;;;;;;;;;;;;;25.83;29.05;100454.41;5075907;28;1138;-41
2022/10/03 04:52:21;;;;;;;;;;;;;;;25.84;29.07;100453.38;5057978;28;1111;-40
2022/10/03 04:54:50;;;;;;;;;;;;;;;25.89;28.98;100453.69;5075613;28;1969;-42
2022/10/03 04:57:45;;;;;;;;;;;;;;;25.81;28.97;100451.06;5058370;28;1155;-40
2022/10/03 05:00:23;;;;;;;;;;;;;;;25.77;29.11;100447.06;5057831;28;2335;-40
2022/10/03 05:03:06;;;;;;;;;;;;;;;25.79;29.03;100448.53;5058057;28;1154;-40
2022/10/03 05:05:37;;;;;;;;;;;;;;;25.79;28.79;100445.03;5075869;28;1187;-40
2022/10/03 05:08:21;;;;;;;;;;;;;;;25.76;28.90;100437.28;5075668;28;1130;-40
2022/10/03 05:11:06;;;;;;;;;;;;;;;25.75;29.10;100432.94;5064074;28;1103;-40
2022/10/03 05:14:10;;;;;;;;;;;;;;;25.69;29.13;100431.81;5075738;28;1048;-40
2022/10/03 05:16:40;;;;;;;;;;;;;;;25.63;28.83;100432.50;4994234;28;1219;-40
2022/10/03 05:19:09;;;;;;;;;;;;;;;25.61;29.37;100437.25;4995469;28;1144;-40
2022/10/03 05:21:41;;;;;;;;;;;;;;;25.49;29.53;100450.28;5044998;28;1146;-40
2022/10/03 05:24:18;;;;;;;;;;;;;;;25.53;29.65;100456.97;5075598;28;920;-40
2022/10/03 05:26:50;;;;;;;;;;;;;;;25.52;29.81;100458.84;5057791;28;1213;-39
2022/10/03 05:29:21;;;;;;;;;;;;;;;25.42;29.73;100456.34;5074164;28;1170;-41
2022/10/03 05:31:54;;;;;;;;;;;;;;;25.49;29.96;100464.56;5037682;28;2678;-41
2022/10/03 05:34:22;;;;;;;;;;;;;;;25.38;29.86;100464.97;5069719;28;1910;-41
2022/10/03 05:36:56;;;;;;;;;;;;;;;24.73;30.06;100463.25;5057963;28;1123;-43
2022/10/03 05:39:33;;;;;;;;;;;;;;;23.79;31.78;100464.56;5075207;28;1071;-43
2022/10/03 05:42:04;;;;;;;;;;;;;;;23.64;32.13;100462.53;5055210;28;1111;-43
2022/10/03 05:44:42;;;;;;;;;;;;;;;24.00;31.44;100458.69;5055524;28;1135;-44
2022/10/03 05:50:26;;;;;;;;;;;;;;;24.90;31.03;100463.19;5055182;28;1143;-44
2022/10/03 05:52:57;;;;;;;;;;;;;;;25.05;30.80;100466.84;5055483;28;1096;-43
2022/10/03 05:55:25;;;;;;;;;;;;;;;25.07;30.49;100464.00;5061081;28;1947;-44
2022/10/03 05:58:11;;;;;;;;;;;;;;;25.15;30.30;100471.19;5075677;28;1185;-44
2022/10/03 06:00:44;;;;;;;;;;;;;;;25.37;30.67;100482.16;5065107;28;1602;-41
2022/10/03 06:03:33;;;;;;;;;;;;;;;25.48;30.68;100478.22;5072245;28;1202;-43
2022/10/03 06:06:07;;;;;;;;;;;;;;;25.52;30.90;100480.38;5040953;28;1286;-43
2022/10/03 06:08:42;;;;;;;;;;;;;;;25.80;31.20;100479.88;5071201;28;1112;-42
2022/10/03 06:11:16;;;;;;;;;;;;;;;25.89;31.10;100483.31;5063556;28;1126;-43
2022/10/03 06:13:45;;;;;;;;;;;;;;;26.13;31.00;100481.44;5078578;28;1127;-43
2022/10/03 06:16:13;;;;;;;;;;;;;;;26.20;30.83;100486.09;5058848;28;1910;-43
2022/10/03 06:18:50;;;;;;;;;;;;;;;26.28;31.26;100477.91;5070113;28;1088;-43
2022/10/03 06:21:31;;;;;;;;;;;;;;;26.37;31.16;100476.03;5059201;28;1174;-43
2022/10/03 06:24:29;;;;;;;;;;;;;;;26.41;31.26;100470.06;5054243;28;1104;-43
2022/10/03 06:26:59;;;;;;;;;;;;;;;26.58;31.32;100471.72;5025459;28;1440;-43
2022/10/03 06:29:34;;;;;;;;;;;;;;;26.80;31.19;100479.91;5040503;28;1180;-43
2022/10/03 06:32:18;;;;;;;;;;;;;;;26.73;31.85;100480.66;5058351;28;2580;-43
2022/10/03 06:35:03;;;;;;;;;;;;;;;26.87;31.81;100478.16;5058516;28;1909;-44
2022/10/03 06:37:28;;;;;;;;;;;;;;;26.78;32.05;100483.66;5071299;28;1119;-42
2022/10/03 06:40:09;;;;;;;;;;;;;;;26.81;32.30;100485.13;5078158;28;1252;-43
2022/10/03 06:42:46;;;;;;;;;;;;;;;26.83;32.45;100488.47;5065689;28;1209;-42
2022/10/03 06:45:11;;;;;;;;;;;;;;;26.81;32.32;100493.22;5058306;28;1061;-43
2022/10/03 06:47:55;;;;;;;;;;;;;;;26.84;32.07;100489.31;5063960;28;1096;-43
2022/10/03 06:50:39;;;;;;;;;;;;;;;26.86;32.96;100489.97;5058142;28;1143;-43
2022/10/03 06:53:19;;;;;;;;;;;;;;;26.94;32.54;100489.88;5072231;28;1131;-42
2022/10/03 06:55:59;;;;;;;;;;;;;;;26.97;32.76;100485.94;5057822;28;2260;-43
2022/10/03 06:58:47;;;;;;;;;;;;;;;26.85;32.96;100480.19;5061080;28;1115;-43
2022/10/03 07:01:19;;;;;;;;;;;;;;;26.89;32.87;100478.81;5046996;28;1646;-43
2022/10/03 07:03:55;;;;;;;;;;;;;;;26.86;32.92;100480.00;5039698;28;1156;-42
2022/10/03 07:06:37;;;;;;;;;;;;;;;26.89;33.38;100487.72;5039795;28;1112;-43
2022/10/03 07:09:14;;;;;;;;;;;;;;;26.88;32.68;100477.13;5053706;28;1112;-43
2022/10/03 07:11:52;;;;;;;;;;;;;;;26.82;32.81;100489.50;5062687;28;1131;-43
2022/10/03 07:14:37;;;;;;;;;;;;;;;26.80;33.16;100488.00;5076319;28;1909;-43
2022/10/03 07:17:03;;;;;;;;;;;;;;;26.80;33.24;100483.47;5077515;28;1190;-42
2022/10/03 07:19:47;;;;;;;;;;;;;;;27.12;33.06;100489.50;5059303;28;1142;-34
2022/10/03 07:22:17;;;;;;;;;;;;;;;27.11;33.28;100476.19;5077242;28;1159;-35
2022/10/03 10:10:31;;;;;;;;;;;;;;;26.78;31.36;100480.94;5044499;28;1309;-29
2022/10/03 10:13:16;;;;;;;;;;;;;;;26.91;31.57;100482.13;5058756;28;2534;-30
2022/10/03 10:15:44;;;;;;;;;;;;;;;26.83;32.01;100479.53;5058761;28;1910;-29
2022/10/03 10:18:19;;;;;;;;;;;;;;;26.87;31.85;100478.16;5059120;28;1084;-30
2022/10/03 10:20:44;;;;;;;;;;;;;;;26.82;31.61;100469.78;5059292;28;1218;-30
2022/10/03 10:23:28;;;;;;;;;;;;;;;26.92;32.00;100472.19;5059333;28;1071;-29
2022/10/03 10:25:53;;;;;;;;;;;;;;;27.04;31.89;100467.16;5059122;28;1159;-29
2022/10/03 10:28:22;;;;;;;;;;;;;;;26.99;32.29;100471.22;5058964;28;1146;-30
2022/10/03 10:30:50;;;;;;;;;;;;;;;26.98;32.00;100469.56;5058802;28;1179;-30
2022/10/03 10:33:34;;;;;;;;;;;;;;;26.86;32.72;100463.81;5058641;28;1127;-30
2022/10/03 10:35:59;;;;;;;;;;;;;;;26.81;32.68;100463.53;5058046;28;1894;-30
2022/10/03 10:38:34;;;;;;;;;;;;;;;26.86;32.70;100454.91;5058175;28;848;-30
2022/10/03 10:41:18;;;;;;;;;;;;;;;26.82;32.92;100453.59;5058636;28;1234;-29
2022/10/03 10:43:55;;;;;;;;;;;;;;;26.86;32.55;100453.00;5058789;28;2520;-29
2022/10/03 10:46:27;;;;;;;;;;;;;;;26.97;32.74;100450.88;5081048;28;1134;-30
2022/10/03 10:49:05;;;;;;;;;;;;;;;26.95;32.58;100459.16;5054794;28;1140;-29
2022/10/03 10:51:39;;;;;;;;;;;;;;;27.02;32.86;100449.31;5058424;28;1529;-29
2022/10/03 10:54:07;;;;;;;;;;;;;;;27.00;32.69;100448.63;5058445;28;1103;-30
2022/10/03 10:56:51;;;;;;;;;;;;;;;27.02;33.02;100445.75;5058537;28;1906;-29
2022/10/03 10:59:29;;;;;;;;;;;;;;;26.93;33.17;100449.56;5058003;28;1103;-29
2022/10/03 11:01:54;;;;;;;;;;;;;;;26.78;33.23;100445.03;5057971;28;1131;-30
2022/10/03 11:04:29;;;;;;;;;;;;;;;26.80;33.29;100442.13;5058404;28;1120;-30
2022/10/03 11:07:11;;;;;;;;;;;;;;;26.92;33.48;100437.09;5071209;28;1270;-30
2022/10/03 11:09:46;;;;;;;;;;;;;;;26.93;33.29;100436.91;5055644;28;1240;-29
2022/10/03 11:12:23;;;;;;;;;;;;;;;26.98;33.15;100436.31;5057689;28;1844;-30
2022/10/03 11:15:07;;;;;;;;;;;;;;;26.97;33.32;100423.88;5057936;28;1901;-30
2022/10/03 11:17:46;;;;;;;;;;;;;;;27.02;33.39;100427.72;5058627;28;1135;-30
2022/10/03 11:20:41;;;;;;;;;;;;;;;27.04;33.22;100426.69;5075591;28;1079;-29
2022/10/03 11:23:09;;;;;;;;;;;;;;;27.05;33.57;100417.53;5022278;28;1255;-30
2022/10/03 11:25:34;;;;;;;;;;;;;;;27.04;33.77;100422.13;5041028;28;1276;-31
2022/10/03 11:28:18;;;;;;;;;;;;;;;27.09;33.07;100424.25;5058039;28;1202;-29
2022/10/03 11:30:43;;;;;;;;;;;;;;;27.01;33.79;100417.06;5057938;28;1159;-31
2022/10/03 11:33:14;;;;;;;;;;;;;;;27.06;33.86;100406.56;5057956;28;1127;-31
2022/10/03 11:35:43;;;;;;;;;;;;;;;27.06;33.86;100408.44;5057399;28;1898;-31
2022/10/03 11:38:31;;;;;;;;;;;;;;;27.09;33.43;100398.06;5056824;28;1127;-30
2022/10/03 11:40:59;;;;;;;;;;;;;;;27.01;33.69;100401.72;5079997;28;1115;-30
2022/10/03 11:43:24;;;;;;;;;;;;;;;27.01;33.63;100396.34;5050085;28;2683;-30
2022/10/03 11:45:53;;;;;;;;;;;;;;;27.04;33.74;100397.84;5057681;28;1104;-30
2022/10/03 11:48:22;;;;;;;;;;;;;;;27.02;34.21;100402.56;5077599;28;1139;-30
2022/10/03 11:50:50;;;;;;;;;;;;;;;27.01;33.88;100400.84;5055736;28;1187;-29
2022/10/03 11:53:26;;;;;;;;;;;;;;;27.08;34.53;100401.81;5078521;28;1111;-29
2022/10/03 11:56:01;;;;;;;;;;;;;;;27.08;34.06;100409.06;5088791;28;1965;-29
2022/10/03 11:58:44;;;;;;;;;;;;;;;27.15;33.99;100401.88;5056418;28;1215;-29
2022/10/03 12:01:10;;;;;;;;;;;;;;;27.16;34.36;100408.94;5056491;28;1118;-29
2022/10/03 12:03:36;;;;;;;;;;;;;;;27.16;34.05;100408.94;5057113;28;954;-31
2022/10/03 12:09:13;;;;;;;;;;;;;;;27.19;33.67;100388.84;5069801;28;1103;-29
2022/10/03 12:11:44;;;;;;;;;;;;;;;27.16;33.82;100394.63;5052707;28;2256;-30
2022/10/03 12:14:16;;;;;;;;;;;;;;;27.12;33.71;100395.00;5086750;28;1134;-30
2022/10/03 12:16:57;;;;;;;;;;;;;;;27.11;33.48;100392.50;5079087;28;1130;-30
2022/10/03 12:19:33;;;;;;;;;;;;;;;27.12;33.87;100386.06;5082191;28;1174;-30
2022/10/03 12:22:12;;;;;;;;;;;;;;;27.08;33.95;100391.00;5079902;28;1144;-30
2022/10/03 12:24:40;;;;;;;;;;;;;;;27.05;33.97;100394.09;5074879;28;1234;-31
2022/10/03 12:27:12;;;;;;;;;;;;;;;27.05;33.80;100390.53;5056595;28;841;-31
2022/10/03 12:29:38;;;;;;;;;;;;;;;27.13;33.84;100385.03;5074894;28;1131;-31
2022/10/03 12:32:27;;;;;;;;;;;;;;;27.11;33.98;100387.09;5056506;28;1139;-29
2022/10/03 12:35:01;;;;;;;;;;;;;;;27.13;33.94;100377.78;5032464;28;1968;-29
2022/10/03 12:37:45;;;;;;;;;;;;;;;27.14;33.63;100378.63;5076785;28;1139;-29
2022/10/03 12:40:13;;;;;;;;;;;;;;;27.10;33.37;100371.91;5043609;28;1108;-29
2022/10/03 12:42:40;;;;;;;;;;;;;;;27.10;33.06;100386.25;5088778;28;2512;-29
2022/10/03 12:45:20;;;;;;;;;;;;;;;26.94;32.63;100392.72;5081290;28;1439;-30
2022/10/03 12:47:53;;;;;;;;;;;;;;;26.89;33.50;100393.25;5044279;28;1049;-30
2022/10/03 12:50:30;;;;;;;;;;;;;;;26.96;33.59;100393.34;5078293;28;1147;-29
2022/10/03 12:52:56;;;;;;;;;;;;;;;26.94;33.90;100392.72;5056213;28;1107;-29
2022/10/03 12:55:27;;;;;;;;;;;;;;;26.83;34.22;100393.19;5056354;28;1906;-29
2022/10/03 12:58:04;;;;;;;;;;;;;;;26.83;33.55;100395.88;5081550;28;1146;-30
2022/10/03 13:00:40;;;;;;;;;;;;;;;26.93;33.30;100396.41;5050633;28;1112;-31
2022/10/03 13:03:16;;;;;;;;;;;;;;;26.79;33.62;100408.94;5086116;28;865;-30
2022/10/03 13:05:52;;;;;;;;;;;;;;;26.85;33.24;100416.28;5073374;28;1230;-30
2022/10/03 13:08:20;;;;;;;;;;;;;;;26.75;33.60;100418.41;5077958;28;1119;-30
2022/10/03 13:10:49;;;;;;;;;;;;;;;26.75;33.70;100419.28;5050364;28;1123;-30
2022/10/03 13:13:19;;;;;;;;;;;;;;;26.76;33.10;100417.38;5087647;28;2538;-30
2022/10/03 13:15:54;;;;;;;;;;;;;;;26.82;32.81;100418.50;5087491;28;1917;-29
2022/10/03 13:18:31;;;;;;;;;;;;;;;26.80;32.85;100409.75;5043451;28;1112;-31
2022/10/03 13:21:00;;;;;;;;;;;;;;;26.67;32.80;100410.44;5056035;28;1115;-29
2022/10/03 13:23:31;;;;;;;;;;;;;;;26.77;32.63;100398.34;5056184;28;1155;-31
2022/10/03 13:25:59;;;;;;;;;;;;;;;26.78;33.18;100402.69;5056067;28;1156;-30
2022/10/03 13:28:31;;;;;;;;;;;;;;;26.74;32.95;100396.00;5055387;28;961;-31
2022/10/03 13:31:09;;;;;;;;;;;;;;;26.76;33.19;100391.25;5055986;28;1171;-31
2022/10/03 13:33:37;;;;;;;;;;;;;;;26.75;32.81;100377.94;5068502;28;1163;-31
2022/10/03 13:36:02;;;;;;;;;;;;;;;26.69;32.56;100373.31;5081231;28;1959;-31
2022/10/03 13:38:30;;;;;;;;;;;;;;;26.72;32.22;100381.88;5055332;28;1206;-30
2022/10/03 13:41:09;;;;;;;;;;;;;;;26.69;32.21;100370.63;5055291;28;1119;-31
2022/10/03 13:43:36;;;;;;;;;;;;;;;26.67;31.84;100359.16;5055508;28;2661;-30
2022/10/03 13:46:10;;;;;;;;;;;;;;;26.62;31.96;100357.03;5080672;28;1091;-29
2022/10/03 13:48:35;;;;;;;;;;;;;;;25.17;33.89;100342.66;5082960;28;1569;-29
2022/10/03 13:51:13;;;;;;;;;;;;;;;24.50;34.93;100344.84;5080615;28;997;-28
2022/10/03 13:53:39;;;;;;;;;;;;;;;24.41;34.92;100355.63;5087980;28;1211;-29
2022/10/03 13:56:06;;;;;;;;;;;;;;;24.11;35.76;100350.00;5055788;28;1906;-29
2022/10/03 13:58:31;;;;;;;;;;;;;;;23.81;36.43;100353.25;5058578;28;968;-29
2022/10/03 14:01:03;;;;;;;;;;;;;;;23.81;36.60;100357.78;5055397;28;1139;-28
2022/10/03 14:03:48;;;;;;;;;;;;;;;24.01;36.16;100352.88;5045089;28;1183;-29
2022/10/03 14:06:29;;;;;;;;;;;;;;;23.84;36.69;100355.59;5073203;28;1206;-30
2022/10/03 14:08:59;;;;;;;;;;;;;;;23.85;36.52;100359.13;5079113;28;1138;-29
2022/10/03 14:11:28;;;;;;;;;;;;;;;23.62;37.04;100359.84;5082280;28;1151;-30
2022/10/03 14:14:13;;;;;;;;;;;;;;;23.59;37.54;100344.88;5074320;28;2580;-28
2022/10/03 14:16:39;;;;;;;;;;;;;;;23.50;37.74;100342.38;5085327;28;1918;-29
2022/10/03 14:19:09;;;;;;;;;;;;;;;23.52;37.80;100343.91;5053865;28;1120;-29
2022/10/03 14:21:38;;;;;;;;;;;;;;;23.78;37.11;100348.22;5073501;28;1175;-29
2022/10/03 14:24:06;;;;;;;;;;;;;;;24.09;36.77;100342.09;5044757;28;1092;-29
2022/10/03 14:26:35;;;;;;;;;;;;;;;24.27;36.47;100338.41;5058767;28;1108;-29
2022/10/03 14:29:03;;;;;;;;;;;;;;;24.26;36.54;100343.94;5059213;28;1103;-29
2022/10/03 14:31:34;;;;;;;;;;;;;;;24.21;36.87;100341.75;5059099;28;1154;-28
2022/10/03 14:34:00;;;;;;;;;;;;;;;24.25;36.70;100340.41;5058577;28;1156;-29
2022/10/03 14:36:29;;;;;;;;;;;;;;;24.40;36.38;100343.22;5057973;28;1902;-28
2022/10/03 14:38:57;;;;;;;;;;;;;;;24.60;36.07;100336.56;5058023;28;1203;-29
2022/10/03 14:41:31;;;;;;;;;;;;;;;24.94;35.81;100333.53;5058607;28;1103;-29
2022/10/03 14:44:16;;;;;;;;;;;;;;;25.50;34.84;100331.59;5054768;28;1044;-29
2022/10/03 14:46:43;;;;;;;;;;;;;;;25.86;33.98;100331.97;5080147;28;1150;-29
2022/10/03 14:49:12;;;;;;;;;;;;;;;25.99;33.98;100329.44;5087359;28;1115;-29
2022/10/03 14:51:41;;;;;;;;;;;;;;;26.03;33.94;100336.16;5088680;28;1214;-30
2022/10/03 14:54:27;;;;;;;;;;;;;;;26.22;34.02;100331.22;5076726;28;1110;-29
2022/10/03 14:56:52;;;;;;;;;;;;;;;26.35;34.03;100332.44;5057692;28;1363;-29
2022/10/03 14:59:25;;;;;;;;;;;;;;;26.40;33.17;100330.03;5076275;28;1194;-29
2022/10/03 15:01:54;;;;;;;;;;;;;;;26.47;33.29;100335.50;5058581;28;1413;-29
2022/10/03 15:04:25;;;;;;;;;;;;;;;26.48;33.09;100337.16;5058352;28;1159;-29
2022/10/03 15:06:54;;;;;;;;;;;;;;;26.48;32.92;100327.22;5058782;28;1103;-29
2022/10/03 15:09:19;;;;;;;;;;;;;;;26.52;33.33;100330.38;5058064;28;1248;-29
2022/10/03 15:12:03;;;;;;;;;;;;;;;26.49;33.44;100333.44;5057876;28;2444;-29
2022/10/03 15:14:29;;;;;;;;;;;;;;;26.64;33.63;100333.41;5057760;28;1890;-28
2022/10/03 15:16:55;;;;;;;;;;;;;;;26.61;33.84;100331.09;5079686;28;983;-30
2022/10/03 15:19:47;;;;;;;;;;;;;;;26.71;34.03;100337.00;5077594;28;1186;-29
2022/10/03 15:22:24;;;;;;;;;;;;;;;26.61;34.66;100331.91;5044798;28;1270;-29
2022/10/03 15:24:50;;;;;;;;;;;;;;;26.73;34.51;100337.66;5058071;28;1123;-29
2022/10/03 15:27:22;;;;;;;;;;;;;;;26.67;34.99;100329.50;5084559;28;1107;-29
2022/10/03 15:29:53;;;;;;;;;;;;;;;26.78;34.24;100332.53;5075567;28;1095;-29
2022/10/03 15:32:22;;;;;;;;;;;;;;;26.71;34.43;100339.72;5077228;28;1145;-29
2022/10/03 15:34:48;;;;;;;;;;;;;;;26.78;34.25;100337.94;5057106;28;1894;-29
2022/10/03 15:37:23;;;;;;;;;;;;;;;26.91;34.18;100331.00;5075574;28;1115;-29
2022/10/03 15:39:51;;;;;;;;;;;;;;;26.84;34.38;100330.09;5083202;28;1096;-29
2022/10/03 15:42:16;;;;;;;;;;;;;;;26.85;34.83;100332.59;5074846;28;2365;-29
2022/10/03 15:44:50;;;;;;;;;;;;;;;26.75;35.59;100342.88;5057743;28;1210;-29
2022/10/03 15:47:20;;;;;;;;;;;;;;;26.58;34.68;100339.56;5075271;28;1091;-28
2022/10/03 15:50:00;;;;;;;;;;;;;;;25.61;36.08;100337.56;5081968;28;1119;-29
2022/10/03 15:52:30;;;;;;;;;;;;;;;25.72;35.37;100331.78;5052626;28;1179;-29
2022/10/03 15:54:56;;;;;;;;;;;;;;;25.70;35.02;100336.50;5054036;28;1956;-31
2022/10/03 15:57:27;;;;;;;;;;;;;;;25.74;34.72;100345.88;5089663;28;1171;-31
2022/10/03 15:59:53;;;;;;;;;;;;;;;25.63;34.63;100347.16;5052556;28;1049;-31
2022/10/03 16:02:20;;;;;;;;;;;;;;;25.55;34.79;100350.75;5089902;28;1120;-31
2022/10/03 16:04:46;;;;;;;;;;;;;;;25.75;34.46;100349.41;5056292;28;1127;-31
2022/10/03 16:07:17;;;;;;;;;;;;;;;25.92;34.33;100359.00;5057144;28;1087;-33
2022/10/03 16:10:01;;;;;;;;;;;;;;;26.00;34.34;100355.38;5088886;28;1123;-31
2022/10/03 16:12:36;;;;;;;;;;;;;;;26.04;34.14;100359.38;5062511;28;1782;-31
2022/10/03 16:15:05;;;;;;;;;;;;;;;25.97;34.21;100361.16;5088009;28;1914;-31
2022/10/03 16:17:32;;;;;;;;;;;;;;;25.93;34.41;100367.91;5054157;28;1197;-31
2022/10/03 16:19:58;;;;;;;;;;;;;;;25.92;34.61;100367.06;5087865;28;1237;-31
2022/10/03 16:22:24;;;;;;;;;;;;;;;25.96;34.42;100369.44;5056056;28;1077;-31